Time;durP1;ratioP1;P1;durP2;ratioP2;P2;SDS_P1;SDS_P2;PMS_P1;PMS_P2;Temp;Humidity;BMP_temperature;BMP_pressure;BME280_temperature;BME280_humidity;BME280_pressure;Samples;Min_cycle;Max_cycle;Signal;HPM_P1;HPM_P2
2023/10/08 00:01:25;;;;;;;8.30;4.45;;;16.80;99.90;;;;;;5037174;28;20102;-69
2023/10/08 00:03:58;;;;;;;7.57;4.38;;;16.80;99.90;;;;;;5037863;28;20088;-69
2023/10/08 00:06:26;;;;;;;6.68;4.10;;;16.90;99.90;;;;;;5037523;28;20047;-68
2023/10/08 00:09:06;;;;;;;12.18;5.40;;;16.90;99.90;;;;;;5038197;28;20049;-68
2023/10/08 00:11:41;;;;;;;8.30;3.92;;;17.00;99.90;;;;;;5037778;28;20033;-65
2023/10/08 00:14:21;;;;;;;7.65;4.20;;;17.00;99.90;;;;;;5036602;28;20127;-68
2023/10/08 00:16:52;;;;;;;7.78;4.20;;;17.00;99.90;;;;;;5037600;28;20033;-67
2023/10/08 00:19:24;;;;;;;6.35;4.28;;;16.90;99.90;;;;;;5035388;28;20049;-69
2023/10/08 00:22:04;;;;;;;11.55;4.13;;;17.00;99.90;;;;;;5024433;28;20053;-69
2023/10/08 00:24:40;;;;;;;7.30;3.80;;;16.90;99.90;;;;;;5036280;28;20047;-69
2023/10/08 00:27:14;;;;;;;10.80;4.28;;;16.90;99.90;;;;;;5036389;28;20111;-69
2023/10/08 00:29:47;;;;;;;8.10;3.80;;;16.90;99.90;;;;;;5033916;28;20038;-69
2023/10/08 00:32:19;;;;;;;7.47;3.60;;;16.90;99.90;;;;;;5028548;28;20033;-69
2023/10/08 00:34:51;;;;;;;8.60;4.13;;;16.90;99.90;;;;;;5040449;28;20033;-70
2023/10/08 00:37:26;;;;;;;9.88;4.40;;;16.90;99.90;;;;;;5037346;28;20084;-68
2023/10/08 00:39:59;;;;;;;6.22;3.97;;;17.00;99.90;;;;;;5039968;28;20077;-68
2023/10/08 00:42:30;;;;;;;6.60;3.85;;;17.00;99.90;;;;;;5034639;28;20072;-68
2023/10/08 00:45:05;;;;;;;9.05;4.32;;;17.00;99.90;;;;;;5038814;28;20041;-68
2023/10/08 00:47:40;;;;;;;6.93;4.13;;;17.00;99.90;;;;;;5046569;28;20061;-68
2023/10/08 00:50:08;;;;;;;7.22;4.05;;;16.90;99.90;;;;;;5036226;28;20490;-68
2023/10/08 00:52:41;;;;;;;7.60;4.22;;;17.00;99.90;;;;;;5022700;28;20417;-67
2023/10/08 00:55:22;;;;;;;7.70;3.97;;;16.90;99.90;;;;;;5028252;28;20037;-69
2023/10/08 00:58:07;;;;;;;8.00;4.32;;;17.00;99.90;;;;;;5035918;28;20048;-67
2023/10/08 01:00:41;;;;;;;5.68;3.80;;;17.00;99.90;;;;;;5035906;28;20033;-68
2023/10/08 01:03:19;;;;;;;9.38;4.35;;;17.00;99.90;;;;;;5031006;28;20038;-68
2023/10/08 01:05:51;;;;;;;7.28;4.00;;;17.00;99.90;;;;;;5037057;28;20034;-67
2023/10/08 01:08:32;;;;;;;7.43;4.30;;;16.90;99.90;;;;;;5035557;28;20037;-68
2023/10/08 01:11:19;;;;;;;6.13;3.97;;;16.90;99.90;;;;;;5039168;28;20033;-67
2023/10/08 01:13:54;;;;;;;8.40;4.35;;;16.90;99.90;;;;;;5030312;28;20195;-69
2023/10/08 01:16:32;;;;;;;6.15;3.63;;;16.90;99.90;;;;;;5035996;28;20077;-70
2023/10/08 01:19:12;;;;;;;9.63;4.57;;;16.90;99.90;;;;;;5030372;28;20206;-67
2023/10/08 01:21:42;;;;;;;9.32;4.22;;;16.90;99.90;;;;;;5040424;28;20121;-69
2023/10/08 01:24:17;;;;;;;7.22;4.20;;;16.90;99.90;;;;;;5038254;28;20539;-68
2023/10/08 01:26:45;;;;;;;7.75;3.80;;;16.90;99.90;;;;;;5038920;28;20132;-68
2023/10/08 01:29:19;;;;;;;6.30;3.38;;;16.90;99.90;;;;;;5039479;28;20057;-68
2023/10/08 01:31:53;;;;;;;7.55;4.00;;;16.90;99.90;;;;;;5040137;28;20037;-68
2023/10/08 01:34:35;;;;;;;;;;;16.90;99.90;;;;;;5032857;28;20052;-68
2023/10/08 01:37:12;;;;;;;8.65;3.90;;;16.90;99.90;;;;;;5036084;28;20377;-68
2023/10/08 01:39:45;;;;;;;5.30;3.55;;;17.00;99.90;;;;;;5042867;28;20141;-69
2023/10/08 01:42:18;;;;;;;10.90;3.63;;;17.00;99.90;;;;;;5037652;28;20037;-68
2023/10/08 01:44:46;;;;;;;7.05;3.15;;;17.00;99.90;;;;;;5038770;28;20623;-70
2023/10/08 01:47:15;;;;;;;6.78;3.70;;;17.00;99.90;;;;;;5038434;28;20065;-68
2023/10/08 01:49:45;;;;;;;7.72;3.60;;;17.00;99.90;;;;;;5029693;28;20052;-69
2023/10/08 01:52:22;;;;;;;5.43;3.80;;;16.90;99.90;;;;;;5035247;28;20044;-69
2023/10/08 01:54:50;;;;;;;9.00;3.90;;;16.90;99.90;;;;;;5039861;28;20071;-68
2023/10/08 01:57:21;;;;;;;7.95;3.67;;;16.90;99.90;;;;;;5040672;28;20520;-68
2023/10/08 01:59:54;;;;;;;6.03;3.45;;;16.90;99.90;;;;;;5039401;28;20045;-67
2023/10/08 02:02:26;;;;;;;6.88;4.20;;;16.90;99.90;;;;;;5043144;28;20060;-68
2023/10/08 02:04:57;;;;;;;8.20;4.20;;;16.90;99.90;;;;;;5039817;28;20100;-68
2023/10/08 02:07:30;;;;;;;5.38;3.40;;;16.90;99.90;;;;;;5029689;28;20409;-67
2023/10/08 02:10:05;;;;;;;5.60;3.42;;;16.90;99.90;;;;;;5038296;28;20143;-69
2023/10/08 02:12:38;;;;;;;8.43;3.90;;;16.90;99.90;;;;;;5045110;28;20086;-68
2023/10/08 02:15:13;;;;;;;6.93;3.80;;;16.90;99.90;;;;;;5022311;28;20048;-68
2023/10/08 02:17:45;;;;;;;7.60;3.80;;;16.90;99.90;;;;;;5040068;28;20039;-70
2023/10/08 02:20:17;;;;;;;7.78;3.30;;;16.90;99.90;;;;;;5029373;28;20084;-69
2023/10/08 02:22:49;;;;;;;8.50;4.10;;;16.90;99.90;;;;;;5041855;28;20045;-68
2023/10/08 02:25:22;;;;;;;6.97;4.10;;;16.90;99.90;;;;;;5035718;28;20052;-68
2023/10/08 02:27:54;;;;;;;;;;;16.90;99.90;;;;;;5045526;28;20067;-69
2023/10/08 02:30:27;;;;;;;7.25;4.07;;;16.90;99.90;;;;;;5037425;28;19920;-68
2023/10/08 02:32:59;;;;;;;7.50;3.70;;;16.90;99.90;;;;;;5041681;28;20033;-68
2023/10/08 02:35:31;;;;;;;7.22;3.88;;;16.90;99.90;;;;;;5038868;28;20053;-68
2023/10/08 02:37:59;;;;;;;9.18;3.90;;;16.90;99.90;;;;;;5038433;28;20071;-69
2023/10/08 02:40:31;;;;;;;5.53;3.42;;;16.90;99.90;;;;;;5036722;28;20509;-68
2023/10/08 02:43:07;;;;;;;7.32;3.67;;;16.90;99.90;;;;;;5021835;28;20060;-69
2023/10/08 02:45:39;;;;;;;6.88;3.83;;;16.90;99.90;;;;;;5039676;28;20041;-67
2023/10/08 02:48:13;;;;;;;7.28;3.72;;;16.90;99.90;;;;;;5037641;28;20416;-67
2023/10/08 02:50:45;;;;;;;6.72;3.30;;;16.90;99.90;;;;;;5021073;28;20042;-68
2023/10/08 02:53:23;;;;;;;7.15;4.15;;;16.90;99.90;;;;;;5047516;28;20041;-69
2023/10/08 02:55:55;;;;;;;7.05;3.67;;;17.00;99.90;;;;;;5045439;28;20588;-69
2023/10/08 02:58:27;;;;;;;7.85;4.00;;;17.00;99.90;;;;;;5038075;28;20587;-69
2023/10/08 03:01:00;;;;;;;7.97;4.10;;;17.00;99.90;;;;;;5034914;28;20038;-69
2023/10/08 03:03:32;;;;;;;8.70;3.63;;;17.00;99.90;;;;;;5038026;28;20053;-68
2023/10/08 03:06:04;;;;;;;6.57;3.70;;;17.00;99.90;;;;;;5041143;28;20033;-69
2023/10/08 03:08:36;;;;;;;10.10;4.25;;;17.00;99.90;;;;;;5036449;28;20042;-68
2023/10/08 03:11:16;;;;;;;9.23;3.47;;;17.00;99.90;;;;;;5023907;28;20051;-68
2023/10/08 03:13:51;;;;;;;6.15;3.72;;;17.00;99.90;;;;;;5026062;28;20047;-68
2023/10/08 03:16:28;;;;;;;9.40;3.72;;;17.00;99.90;;;;;;5029097;28;20041;-68
2023/10/08 03:18:57;;;;;;;6.35;3.30;;;17.00;99.90;;;;;;5041321;28;20119;-68
2023/10/08 03:24:23;;;;;;;7.70;3.40;;;17.00;99.90;;;;;;5034148;28;20038;-69
2023/10/08 03:27:05;;;;;;;5.80;3.50;;;17.00;99.90;;;;;;5033812;28;20761;-67
2023/10/08 03:29:44;;;;;;;8.45;3.13;;;17.00;99.90;;;;;;5039804;28;20123;-68
2023/10/08 03:32:16;;;;;;;6.10;3.20;;;17.00;99.90;;;;;;5029376;28;20131;-68
2023/10/08 03:34:49;;;;;;;7.40;4.00;;;17.00;99.90;;;;;;5024233;28;20056;-68
2023/10/08 03:37:29;;;;;;;10.48;3.30;;;16.90;99.90;;;;;;5040598;28;20342;-69
2023/10/08 03:42:49;;;;;;;6.63;3.45;;;16.90;99.90;;;;;;5041989;28;20046;-70
2023/10/08 03:48:15;;;;;;;8.40;3.72;;;16.90;99.90;;;;;;5039646;28;20045;-69
2023/10/08 03:50:56;;;;;;;8.38;3.25;;;16.90;99.90;;;;;;5036225;28;20042;-69
2023/10/08 03:53:32;;;;;;;5.47;3.33;;;16.90;99.90;;;;;;5020720;28;20417;-68
2023/10/08 03:56:05;;;;;;;6.90;3.75;;;16.90;99.90;;;;;;5046057;28;20046;-70
2023/10/08 03:58:46;;;;;;;5.78;3.10;;;17.00;99.90;;;;;;5040066;28;20498;-69
2023/10/08 04:01:19;;;;;;;6.32;3.45;;;17.00;99.90;;;;;;5033934;28;20112;-68
2023/10/08 04:06:30;;;;;;;7.75;3.75;;;16.90;99.90;;;;;;5036789;28;20103;-68
2023/10/08 04:11:53;;;;;;;6.85;3.25;;;17.00;99.90;;;;;;5039054;28;20044;-69
2023/10/08 04:14:25;;;;;;;7.35;3.58;;;16.90;99.90;;;;;;5036087;28;20049;-70
2023/10/08 04:16:58;;;;;;;6.95;2.88;;;16.90;99.90;;;;;;5034584;28;20567;-69
2023/10/08 04:19:30;;;;;;;8.35;4.03;;;16.90;99.90;;;;;;5038391;28;20069;-68
2023/10/08 04:22:03;;;;;;;6.57;3.45;;;16.90;99.90;;;;;;5024153;28;20551;-69
2023/10/08 04:24:35;;;;;;;7.50;3.97;;;16.90;99.90;;;;;;5033702;28;20045;-68
2023/10/08 04:27:09;;;;;;;9.23;3.38;;;16.90;99.90;;;;;;5038210;28;20044;-68
2023/10/08 04:29:42;;;;;;;7.03;3.47;;;16.90;99.90;;;;;;5023429;28;20049;-68
2023/10/08 04:32:22;;;;;;;6.85;2.88;;;16.90;99.90;;;;;;5034639;28;20044;-69
2023/10/08 04:34:49;;;;;;;7.05;4.07;;;17.00;99.90;;;;;;5018295;28;20484;-68
2023/10/08 04:37:21;;;;;;;7.55;3.38;;;16.90;99.90;;;;;;5038352;28;20033;-67
2023/10/08 04:39:58;;;;;;;8.93;3.47;;;17.00;99.90;;;;;;5035647;28;20040;-69
2023/10/08 04:42:30;;;;;;;6.10;3.10;;;17.00;99.90;;;;;;5042081;28;20049;-69
2023/10/08 04:44:58;;;;;;;7.65;3.53;;;17.00;99.90;;;;;;5036825;28;20038;-69
2023/10/08 04:47:33;;;;;;;6.93;2.78;;;17.00;99.90;;;;;;5035758;28;20063;-67
2023/10/08 04:50:06;;;;;;;8.38;3.25;;;17.00;99.90;;;;;;5036629;28;20466;-70
2023/10/08 04:52:45;;;;;;;8.45;3.83;;;17.00;99.90;;;;;;5040504;28;20048;-68
2023/10/08 04:55:20;;;;;;;8.52;4.15;;;17.00;99.90;;;;;;5025633;28;20043;-68
2023/10/08 04:57:53;;;;;;;5.65;3.10;;;17.00;99.90;;;;;;5040707;28;20033;-70
2023/10/08 05:00:41;;;;;;;8.03;3.20;;;16.90;99.90;;;;;;5034762;28;20045;-68
2023/10/08 05:03:14;;;;;;;7.28;3.88;;;17.00;99.90;;;;;;5042876;28;20791;-67
2023/10/08 05:06:02;;;;;;;5.88;3.08;;;17.00;99.90;;;;;;5041231;28;20077;-70
2023/10/08 05:11:36;;;;;;;5.82;3.63;;;17.10;99.90;;;;;;5043079;28;20052;-68
2023/10/08 05:14:16;;;;;;;7.78;2.92;;;17.10;99.90;;;;;;5042876;28;20086;-67
2023/10/08 05:17:00;;;;;;;6.15;3.13;;;17.10;99.90;;;;;;5030580;28;20045;-67
2023/10/08 05:30:37;;;;;;;10.20;4.45;;;16.80;99.90;;;;;;5042054;28;20531;-69
2023/10/08 05:33:08;;;;;;;6.53;3.17;;;16.80;99.90;;;;;;5038864;28;20045;-69
2023/10/08 05:55:15;;;;;;;11.05;3.83;;;16.80;99.90;;;;;;5042359;28;20077;-68
2023/10/08 05:57:35;;;;;;;8.90;3.72;;;16.80;99.90;;;;;;5033774;28;20069;-67
2023/10/08 06:13:06;;;;;;;8.80;3.90;;;16.50;99.90;;;;;;5040372;28;20029;-68
2023/10/08 06:15:48;;;;;;;5.60;3.20;;;16.50;99.90;;;;;;5025636;28;20531;-67
2023/10/08 06:18:25;;;;;;;9.35;3.60;;;16.50;99.90;;;;;;5041853;28;20563;-70
2023/10/08 06:21:08;;;;;;;8.63;3.47;;;16.50;99.90;;;;;;5036278;28;20041;-69
2023/10/08 06:23:37;;;;;;;8.20;4.20;;;16.50;99.90;;;;;;5035190;28;20144;-67
2023/10/08 06:28:44;;;;;;;8.27;3.65;;;16.40;99.90;;;;;;5038482;28;20045;-69
2023/10/08 06:31:16;;;;;;;7.55;4.57;;;16.40;99.90;;;;;;5040261;28;20128;-68
2023/10/08 06:33:48;;;;;;;10.15;3.42;;;16.40;99.90;;;;;;5044340;28;20048;-67
2023/10/08 06:36:24;;;;;;;5.80;2.90;;;16.40;99.90;;;;;;5041455;28;20517;-68
2023/10/08 06:38:56;;;;;;;7.57;3.55;;;16.40;99.90;;;;;;5045324;28;20068;-67
2023/10/08 06:41:33;;;;;;;6.00;3.30;;;16.50;99.90;;;;;;5030299;28;20055;-69
2023/10/08 06:44:14;;;;;;;5.88;3.33;;;16.50;99.90;;;;;;5042333;28;20045;-67
2023/10/08 06:46:41;;;;;;;9.85;3.30;;;16.50;99.90;;;;;;5041170;28;20056;-67
2023/10/08 06:49:13;;;;;;;10.32;3.33;;;16.50;99.90;;;;;;5038005;28;20054;-67
2023/10/08 06:51:45;;;;;;;6.88;3.40;;;16.60;99.90;;;;;;5037429;28;20041;-67
2023/10/08 06:54:18;;;;;;;7.13;3.55;;;16.60;99.90;;;;;;5039171;28;20041;-67
2023/10/08 06:56:51;;;;;;;9.93;3.50;;;16.60;99.90;;;;;;5040582;28;20057;-68
2023/10/08 06:59:25;;;;;;;9.23;3.45;;;16.70;99.90;;;;;;5046987;28;20153;-68
2023/10/08 07:01:58;;;;;;;8.38;3.47;;;16.70;99.90;;;;;;5044388;28;20140;-70
2023/10/08 07:04:30;;;;;;;6.85;3.28;;;16.70;99.90;;;;;;5039799;28;20569;-69
2023/10/08 07:06:59;;;;;;;7.82;3.55;;;16.80;99.90;;;;;;5017459;28;20429;-67
2023/10/08 07:12:05;;;;;;;8.77;3.28;;;16.80;99.90;;;;;;5040090;28;20096;-68
2023/10/08 07:14:33;;;;;;;8.60;3.72;;;16.80;99.90;;;;;;5039038;28;20137;-68
2023/10/08 07:17:08;;;;;;;7.53;3.25;;;16.80;99.90;;;;;;5038032;28;20045;-68
2023/10/08 07:19:37;;;;;;;7.07;3.17;;;16.80;99.90;;;;;;5037831;28;20051;-69
2023/10/08 07:22:21;;;;;;;9.35;3.50;;;16.90;99.90;;;;;;5039959;28;20104;-69
2023/10/08 07:24:50;;;;;;;8.52;3.88;;;16.90;99.90;;;;;;5037752;28;20577;-68
2023/10/08 07:27:31;;;;;;;7.03;3.42;;;16.90;99.90;;;;;;5039156;28;20036;-69
2023/10/08 07:30:10;;;;;;;8.57;3.50;;;16.80;99.90;;;;;;5037866;28;20128;-70
2023/10/08 07:32:41;;;;;;;5.13;3.10;;;16.90;99.90;;;;;;5033584;28;20055;-69
2023/10/08 07:37:50;;;;;;;10.75;4.15;;;16.80;99.90;;;;;;5035881;28;20049;-68
2023/10/08 07:40:17;;;;;;;8.63;3.20;;;16.80;99.90;;;;;;5037574;28;20049;-67
2023/10/08 07:42:51;;;;;;;7.45;3.28;;;16.80;99.90;;;;;;5023733;28;20057;-67
2023/10/08 07:45:23;;;;;;;9.40;3.58;;;16.90;99.90;;;;;;5036665;28;20551;-69
2023/10/08 07:47:50;;;;;;;9.18;3.20;;;16.80;99.90;;;;;;5034824;28;20047;-70
2023/10/08 07:50:24;;;;;;;7.82;3.38;;;16.90;99.90;;;;;;5040631;28;20065;-68
2023/10/08 07:52:56;;;;;;;10.15;3.42;;;17.00;99.90;;;;;;5039554;28;20048;-69
2023/10/08 07:55:22;;;;;;;6.45;3.42;;;17.00;99.90;;;;;;5038010;28;20051;-69
2023/10/08 07:57:54;;;;;;;12.32;4.00;;;17.10;99.90;;;;;;5034920;28;20033;-69
2023/10/08 08:00:30;;;;;;;10.25;3.90;;;17.10;99.90;;;;;;5037443;28;20052;-69
2023/10/08 08:03:04;;;;;;;10.70;3.53;;;17.20;99.90;;;;;;5036089;28;20432;-66
2023/10/08 08:05:40;;;;;;;7.57;3.50;;;17.30;99.90;;;;;;5041529;28;20073;-67
2023/10/08 08:08:17;;;;;;;8.85;3.97;;;17.30;99.90;;;;;;5038732;28;20048;-68
2023/10/08 08:10:49;;;;;;;8.40;3.53;;;17.30;99.90;;;;;;5036778;28;20045;-69
2023/10/08 08:13:21;;;;;;;6.82;3.22;;;17.30;99.90;;;;;;5036125;28;20044;-69
2023/10/08 08:15:53;;;;;;;8.13;3.53;;;17.30;99.90;;;;;;5036569;28;20040;-68
2023/10/08 08:18:22;;;;;;;8.13;3.33;;;17.30;99.90;;;;;;5036169;28;20045;-67
2023/10/08 08:20:49;;;;;;;6.47;2.90;;;17.30;99.90;;;;;;5036665;28;20041;-69
2023/10/08 08:23:21;;;;;;;7.35;3.13;;;17.40;99.90;;;;;;5036642;28;20041;-67
2023/10/08 08:26:06;;;;;;;12.43;4.53;;;17.40;99.90;;;;;;5039300;28;20055;-66
2023/10/08 08:28:33;;;;;;;8.68;3.45;;;17.40;99.90;;;;;;5039797;28;20473;-68
2023/10/08 08:31:04;;;;;;;11.40;4.30;;;17.30;99.90;;;;;;5034979;28;20569;-69
2023/10/08 08:36:23;;;;;;;9.27;3.42;;;17.40;99.90;;;;;;5036430;28;20135;-70
2023/10/08 08:38:55;;;;;;;9.38;3.30;;;17.40;99.90;;;;;;5038724;28;20052;-67
2023/10/08 08:41:27;;;;;;;7.32;3.33;;;17.40;99.90;;;;;;5041879;28;20429;-69
2023/10/08 08:44:06;;;;;;;7.22;3.60;;;17.50;99.90;;;;;;5036053;28;20052;-69
2023/10/08 08:46:35;;;;;;;11.27;3.40;;;17.60;99.90;;;;;;5039854;28;20068;-67
2023/10/08 08:49:08;;;;;;;7.65;3.35;;;17.60;99.90;;;;;;5036738;28;20041;-67
2023/10/08 08:51:41;;;;;;;6.18;2.92;;;17.70;99.90;;;;;;5039055;28;20423;-69
2023/10/08 08:54:14;;;;;;;11.98;3.20;;;17.90;99.90;;;;;;5034706;28;20037;-68
2023/10/08 08:56:48;;;;;;;9.35;3.45;;;18.00;99.90;;;;;;5037013;28;20037;-67
2023/10/08 08:59:17;;;;;;;11.65;3.70;;;18.00;99.90;;;;;;5036116;28;20040;-69
2023/10/08 09:01:45;;;;;;;9.43;3.25;;;18.10;99.90;;;;;;5033586;28;20136;-67
2023/10/08 09:04:17;;;;;;;12.45;3.03;;;18.20;99.90;;;;;;5037129;28;20052;-69
2023/10/08 09:06:45;;;;;;;9.38;3.42;;;18.30;99.90;;;;;;5037500;28;20132;-69
2023/10/08 09:09:23;;;;;;;6.13;2.55;;;18.40;99.90;;;;;;5035212;28;20037;-70
2023/10/08 09:11:57;;;;;;;10.77;3.47;;;18.40;99.90;;;;;;5037016;28;20046;-69
2023/10/08 09:14:31;;;;;;;10.00;3.28;;;18.60;99.90;;;;;;5035550;28;20042;-68
2023/10/08 09:17:05;;;;;;;9.27;3.50;;;18.60;99.90;;;;;;5036379;28;20501;-69
2023/10/08 09:19:38;;;;;;;7.00;3.20;;;18.70;99.90;;;;;;5038347;28;20099;-70
2023/10/08 09:22:11;;;;;;;11.25;3.28;;;18.80;99.90;;;;;;5041165;28;20139;-68
2023/10/08 09:24:43;;;;;;;9.77;3.40;;;18.90;99.90;;;;;;5035691;28;20517;-69
2023/10/08 09:27:19;;;;;;;11.77;3.67;;;18.90;99.90;;;;;;5040080;28;20469;-67
2023/10/08 09:29:51;;;;;;;12.25;3.47;;;18.90;99.90;;;;;;5038761;28;20045;-69
2023/10/08 09:32:25;;;;;;;12.20;5.25;;;18.90;99.90;;;;;;5025613;28;20041;-69
2023/10/08 09:34:58;;;;;;;8.40;5.00;;;18.90;99.90;;;;;;5041957;28;20045;-67
2023/10/08 09:37:29;;;;;;;10.73;3.77;;;18.90;99.90;;;;;;5040290;28;20041;-69
2023/10/08 09:40:08;;;;;;;12.00;4.07;;;19.00;99.90;;;;;;5036658;28;20496;-68
2023/10/08 09:42:42;;;;;;;9.57;4.72;;;19.10;99.90;;;;;;5041987;28;20146;-68
2023/10/08 09:45:10;;;;;;;14.57;10.30;;;19.10;99.90;;;;;;5037720;28;20136;-67
2023/10/08 09:47:59;;;;;;;17.10;12.57;;;19.20;99.90;;;;;;5038992;28;20379;-69
2023/10/08 09:50:37;;;;;;;21.85;11.05;;;19.20;99.90;;;;;;5038760;28;20044;-69
2023/10/08 09:53:16;;;;;;;11.60;6.32;;;19.30;99.90;;;;;;5039446;28;20041;-69
2023/10/08 09:55:55;;;;;;;11.23;4.72;;;19.40;99.90;;;;;;5041870;28;20052;-68
2023/10/08 09:58:27;;;;;;;;;;;19.50;99.90;;;;;;5044045;28;20238;-69
2023/10/08 10:00:57;;;;;;;10.18;4.57;;;19.60;99.90;;;;;;5038526;28;20024;-67
2023/10/08 10:03:30;;;;;;;9.63;4.70;;;19.70;99.90;;;;;;5035800;28;20406;-69
2023/10/08 10:06:02;;;;;;;27.70;13.23;;;19.80;99.90;;;;;;5038868;28;20048;-68
2023/10/08 10:08:35;;;;;;;16.00;7.55;;;19.90;99.90;;;;;;5042712;28;20050;-69
2023/10/08 10:11:08;;;;;;;;;;;19.90;99.90;;;;;;5040340;28;20048;-66
2023/10/08 10:13:44;;;;;;;11.40;5.78;;;19.90;99.90;;;;;;5040068;28;19925;-69
2023/10/08 10:16:24;;;;;;;13.77;8.85;;;19.90;99.90;;;;;;5040415;28;20098;-66
2023/10/08 10:18:57;;;;;;;14.98;5.00;;;20.00;99.90;;;;;;5042943;28;20520;-69
2023/10/08 10:21:31;;;;;;;11.40;3.53;;;20.00;99.90;;;;;;5038966;28;20421;-66
2023/10/08 10:24:05;;;;;;;8.23;3.60;;;20.10;99.90;;;;;;5037974;28;20036;-66
2023/10/08 10:26:40;;;;;;;11.10;3.63;;;20.00;99.90;;;;;;5037009;28;20119;-67
2023/10/08 10:29:14;;;;;;;11.05;3.40;;;20.00;99.90;;;;;;5023561;28;20059;-66
2023/10/08 10:31:53;;;;;;;10.13;4.18;;;20.00;99.90;;;;;;5044225;28;20034;-69
2023/10/08 10:34:26;;;;;;;11.75;3.60;;;20.00;99.90;;;;;;5043337;28;20025;-69
2023/10/08 10:37:02;;;;;;;9.15;3.35;;;19.90;99.90;;;;;;5041117;28;20041;-68
2023/10/08 10:39:34;;;;;;;11.73;4.25;;;19.90;99.90;;;;;;5045561;28;20041;-69
2023/10/08 10:42:06;;;;;;;6.70;3.05;;;19.90;99.90;;;;;;5039141;28;20042;-67
2023/10/08 10:44:38;;;;;;;9.82;3.45;;;19.90;99.90;;;;;;5044748;28;20045;-66
2023/10/08 10:52:31;;;;;;;9.30;4.70;;;19.90;99.90;;;;;;5037910;28;20033;-67
2023/10/08 10:57:55;;;;;;;;;;;19.80;99.90;;;;;;5038742;28;20039;-68
2023/10/08 11:03:17;;;;;;;8.20;3.40;;;19.70;99.90;;;;;;5039903;28;20113;-68
2023/10/08 11:05:54;;;;;;;9.35;3.63;;;19.70;99.90;;;;;;5038697;28;20045;-68
2023/10/08 11:08:24;;;;;;;11.10;3.45;;;19.80;99.90;;;;;;5038457;28;20112;-69
2023/10/08 11:10:58;;;;;;;12.98;3.20;;;19.70;99.90;;;;;;5042728;28;20045;-68
2023/10/08 11:13:37;;;;;;;9.43;4.07;;;19.70;99.90;;;;;;5038052;28;20038;-69
2023/10/08 11:16:07;;;;;;;10.02;4.05;;;19.70;99.90;;;;;;5038879;28;20041;-69
2023/10/08 11:18:47;;;;;;;8.15;3.45;;;19.70;99.90;;;;;;5033582;28;20045;-67
2023/10/08 11:21:15;;;;;;;11.30;4.85;;;19.80;99.90;;;;;;5035091;28;20132;-67
2023/10/08 11:23:55;;;;;;;;;;;19.70;99.90;;;;;;5045159;28;20436;-69
2023/10/08 11:26:31;;;;;;;13.05;4.00;;;19.70;99.90;;;;;;5034007;28;19928;-67
2023/10/08 11:29:05;;;;;;;10.73;3.65;;;19.70;99.90;;;;;;5039103;28;20041;-69
2023/10/08 11:31:33;;;;;;;12.75;3.85;;;19.70;99.90;;;;;;5039667;28;20140;-69
2023/10/08 11:34:13;;;;;;;9.10;3.63;;;19.60;99.90;;;;;;5035069;28;20042;-69
2023/10/08 11:36:53;;;;;;;15.00;4.13;;;19.40;99.90;;;;;;5035789;28;20405;-69
2023/10/08 11:39:30;;;;;;;7.47;3.15;;;19.40;99.90;;;;;;5037409;28;20113;-69
2023/10/08 11:42:03;;;;;;;9.43;3.47;;;19.30;99.90;;;;;;5036251;28;20045;-69
2023/10/08 11:44:35;;;;;;;10.57;3.13;;;19.40;99.90;;;;;;5033606;28;20055;-68
2023/10/08 11:47:20;;;;;;;7.28;2.92;;;19.30;99.90;;;;;;5035363;28;20382;-68
2023/10/08 11:50:09;;;;;;;10.15;3.53;;;19.30;99.90;;;;;;5040067;28;20516;-68
2023/10/08 11:52:41;;;;;;;11.25;3.42;;;19.40;99.90;;;;;;5036658;28;20049;-68
2023/10/08 11:55:18;;;;;;;12.02;3.33;;;19.50;99.90;;;;;;5037830;28;20032;-68
2023/10/08 11:57:48;;;;;;;10.95;3.70;;;19.50;99.90;;;;;;5038153;28;20053;-69
2023/10/08 12:00:18;;;;;;;9.85;4.28;;;19.50;99.90;;;;;;5037550;28;20041;-68
2023/10/08 12:02:54;;;;;;;5.93;3.30;;;19.60;99.90;;;;;;5035814;28;20526;-67
2023/10/08 12:05:25;;;;;;;10.63;3.63;;;19.60;99.90;;;;;;5038238;28;20071;-70
2023/10/08 12:07:57;;;;;;;8.55;3.03;;;19.70;99.90;;;;;;5036119;28;20135;-69
2023/10/08 12:10:34;;;;;;;14.07;4.90;;;19.80;99.90;;;;;;5038147;28;20045;-69
2023/10/08 12:13:06;;;;;;;10.82;3.20;;;19.90;99.90;;;;;;5038166;28;20068;-69
2023/10/08 12:15:38;;;;;;;10.85;3.70;;;19.90;99.90;;;;;;5042395;28;20044;-69
2023/10/08 12:18:26;;;;;;;8.05;3.38;;;20.00;99.90;;;;;;5025416;28;20068;-68
2023/10/08 12:20:58;;;;;;;17.05;5.13;;;20.00;99.90;;;;;;5026170;28;20488;-69
2023/10/08 12:23:33;;;;;;;15.00;4.60;;;20.00;99.90;;;;;;5041690;28;20513;-70
2023/10/08 12:26:07;;;;;;;8.27;3.38;;;20.00;99.90;;;;;;5043644;28;20055;-68
2023/10/08 12:28:39;;;;;;;9.60;3.50;;;20.00;99.90;;;;;;5039055;28;20041;-69
2023/10/08 12:31:15;;;;;;;23.67;6.13;;;20.00;99.90;;;;;;5032830;28;20294;-69
2023/10/08 12:33:47;;;;;;;10.73;3.50;;;20.00;99.90;;;;;;5039501;28;20053;-68
2023/10/08 12:36:16;;;;;;;9.68;3.70;;;19.90;99.90;;;;;;5034694;28;20037;-68
2023/10/08 12:38:49;;;;;;;12.57;4.18;;;19.90;99.90;;;;;;5037181;28;20037;-68
2023/10/08 12:41:20;;;;;;;13.23;4.40;;;20.00;99.90;;;;;;5038282;28;20048;-69
2023/10/08 12:43:53;;;;;;;10.93;3.58;;;20.00;99.90;;;;;;5038264;28;20056;-68
2023/10/08 12:46:25;;;;;;;15.87;4.20;;;20.00;99.90;;;;;;5032483;28;20851;-67
2023/10/08 12:49:01;;;;;;;11.73;4.00;;;20.10;99.90;;;;;;5033200;28;20054;-68
2023/10/08 12:51:33;;;;;;;10.02;3.63;;;20.10;99.90;;;;;;5032025;28;20045;-68
2023/10/08 12:54:10;;;;;;;8.40;3.53;;;20.10;99.90;;;;;;5033511;28;20037;-69
2023/10/08 12:56:45;;;;;;;9.20;3.58;;;20.20;99.90;;;;;;5034522;28;20400;-69
2023/10/08 12:59:23;;;;;;;18.17;5.75;;;20.20;99.90;;;;;;5032575;28;20531;-70
2023/10/08 13:01:55;;;;;;;7.68;3.38;;;20.20;99.90;;;;;;5035655;28;20045;-69
2023/10/08 13:04:27;;;;;;;9.88;3.53;;;20.20;99.90;;;;;;5030751;28;20257;-68
2023/10/08 13:07:02;;;;;;;9.55;4.10;;;20.30;99.90;;;;;;5032835;28;20046;-68
2023/10/08 13:09:37;;;;;;;8.35;3.05;;;20.30;99.90;;;;;;5035683;28;20049;-69
2023/10/08 13:12:10;;;;;;;7.50;3.60;;;20.30;99.90;;;;;;5033260;28;20506;-67
2023/10/08 13:14:44;;;;;;;8.48;4.10;;;20.30;99.90;;;;;;5035189;28;20480;-67
2023/10/08 13:17:16;;;;;;;9.82;3.70;;;20.30;99.90;;;;;;5046446;28;20045;-69
2023/10/08 13:19:48;;;;;;;11.45;3.38;;;20.30;99.90;;;;;;5035550;28;20088;-69
2023/10/08 13:22:20;;;;;;;13.45;4.90;;;20.20;99.90;;;;;;5035654;28;20045;-69
2023/10/08 13:24:52;;;;;;;8.38;3.20;;;20.20;99.90;;;;;;5038883;28;20573;-69
2023/10/08 13:27:24;;;;;;;11.10;4.30;;;20.20;99.90;;;;;;5042332;28;20047;-69
2023/10/08 13:29:56;;;;;;;11.02;4.13;;;20.30;99.90;;;;;;5027364;28;20041;-69
2023/10/08 13:32:23;;;;;;;14.45;3.40;;;20.30;99.90;;;;;;5037916;28;20049;-67
2023/10/08 13:34:50;;;;;;;11.35;4.05;;;20.30;99.90;;;;;;5038729;28;20044;-69
2023/10/08 13:37:22;;;;;;;10.88;4.10;;;20.30;99.90;;;;;;5038243;28;20044;-68
2023/10/08 13:39:53;;;;;;;7.93;3.53;;;20.30;99.90;;;;;;5035896;28;20524;-67
2023/10/08 13:42:20;;;;;;;12.73;4.03;;;20.30;99.90;;;;;;5032549;28;20128;-68
2023/10/08 13:44:53;;;;;;;9.80;3.88;;;20.30;99.90;;;;;;5032068;28;20045;-68
2023/10/08 13:47:28;;;;;;;9.63;3.38;;;20.40;99.90;;;;;;5026289;28;20390;-68
2023/10/08 13:50:00;;;;;;;7.60;3.45;;;20.40;99.90;;;;;;5042948;28;20045;-69
2023/10/08 13:52:36;;;;;;;12.00;3.95;;;20.40;99.90;;;;;;5037775;28;20098;-69
2023/10/08 13:55:13;;;;;;;9.57;2.88;;;20.40;99.90;;;;;;5039949;28;20092;-69
2023/10/08 13:57:42;;;;;;;12.67;4.07;;;20.30;99.90;;;;;;5041211;28;20564;-69
2023/10/08 14:00:15;;;;;;;12.60;3.70;;;20.30;99.90;;;;;;5039888;28;20048;-69
2023/10/08 14:02:51;;;;;;;;;;;20.30;99.90;;;;;;5038080;28;20037;-69
2023/10/08 14:05:24;;;;;;;7.07;3.30;;;20.30;99.90;;;;;;5026398;28;19972;-65
2023/10/08 14:07:57;;;;;;;12.73;3.85;;;20.30;99.90;;;;;;5042094;28;20677;-70
2023/10/08 14:10:31;;;;;;;11.02;3.45;;;20.30;99.90;;;;;;5038642;28;20065;-69
2023/10/08 14:13:01;;;;;;;11.07;3.30;;;20.30;99.90;;;;;;5042102;28;20035;-69
2023/10/08 14:15:36;;;;;;;13.85;4.97;;;20.30;99.90;;;;;;5048830;28;20517;-68
2023/10/08 14:18:11;;;;;;;11.45;4.35;;;20.20;99.90;;;;;;5037881;28;20051;-69
2023/10/08 14:20:46;;;;;;;14.75;4.05;;;20.20;99.90;;;;;;5039570;28;20048;-69
2023/10/08 14:23:16;;;;;;;10.43;3.40;;;20.20;99.90;;;;;;5038600;28;20045;-68
2023/10/08 14:25:51;;;;;;;11.88;3.60;;;20.20;99.90;;;;;;5048423;28;20136;-69
2023/10/08 14:28:39;;;;;;;13.20;4.03;;;20.20;99.90;;;;;;5054990;28;20049;-69
2023/10/08 14:31:15;;;;;;;8.23;3.55;;;20.30;99.90;;;;;;5039178;28;20041;-68
2023/10/08 14:34:18;;;;;;;11.25;3.35;;;20.30;99.90;;;;;;5040246;28;20446;-69
2023/10/08 14:45:18;;;;;;;10.13;3.50;;;20.50;99.90;;;;;;5040320;28;20056;-68
2023/10/08 14:47:51;;;;;;;8.68;3.38;;;20.50;99.90;;;;;;5043514;28;20040;-69
2023/10/08 14:50:32;;;;;;;22.30;5.13;;;20.60;99.90;;;;;;5044580;28;20041;-69